sensor_id;sensor_type;location;lat;lon;timestamp;pressure;altitude;pressure_sealevel;temperature;humidity
25869;BME280;13688;53.154;18.136;2023-04-15T00:02:41;100166.30;;;8.10;77.26
25869;BME280;13688;53.154;18.136;2023-04-15T00:08:04;100159.61;;;8.04;77.94
25869;BME280;13688;53.154;18.136;2023-04-15T00:13:27;100168.34;;;7.95;78.48
25869;BME280;13688;53.154;18.136;2023-04-15T00:18:49;100170.28;;;7.93;79.00
25869;BME280;13688;53.154;18.136;2023-04-15T00:24:11;100170.61;;;7.88;79.48
25869;BME280;13688;53.154;18.136;2023-04-15T00:29:34;100162.95;;;7.84;79.93
25869;BME280;13688;53.154;18.136;2023-04-15T00:34:57;100158.05;;;7.78;80.37
25869;BME280;13688;53.154;18.136;2023-04-15T00:40:21;100159.63;;;7.80;80.88
25869;BME280;13688;53.154;18.136;2023-04-15T00:45:44;100160.48;;;7.81;81.10
25869;BME280;13688;53.154;18.136;2023-04-15T00:51:07;100160.39;;;7.82;81.18
25869;BME280;13688;53.154;18.136;2023-04-15T00:56:33;100157.23;;;7.88;81.30
25869;BME280;13688;53.154;18.136;2023-04-15T01:01:55;100164.33;;;8.00;81.29
25869;BME280;13688;53.154;18.136;2023-04-15T01:07:18;100155.59;;;8.10;81.06
25869;BME280;13688;53.154;18.136;2023-04-15T01:12:40;100166.45;;;8.19;80.73
25869;BME280;13688;53.154;18.136;2023-04-15T01:18:04;100157.96;;;8.25;80.33
25869;BME280;13688;53.154;18.136;2023-04-15T01:23:27;100158.94;;;8.24;80.00
25869;BME280;13688;53.154;18.136;2023-04-15T01:28:51;100149.92;;;8.25;79.95
25869;BME280;13688;53.154;18.136;2023-04-15T01:34:13;100157.84;;;8.27;79.87
25869;BME280;13688;53.154;18.136;2023-04-15T01:39:35;100158.48;;;8.30;79.83
25869;BME280;13688;53.154;18.136;2023-04-15T01:44:58;100158.23;;;8.33;79.71
25869;BME280;13688;53.154;18.136;2023-04-15T01:50:22;100160.48;;;8.40;79.56
25869;BME280;13688;53.154;18.136;2023-04-15T01:55:45;100148.41;;;8.45;79.31
25869;BME280;13688;53.154;18.136;2023-04-15T02:01:08;100161.55;;;8.48;79.07
25869;BME280;13688;53.154;18.136;2023-04-15T02:06:31;100157.17;;;8.47;78.98
25869;BME280;13688;53.154;18.136;2023-04-15T02:11:53;100150.50;;;8.53;78.81
25869;BME280;13688;53.154;18.136;2023-04-15T02:17:16;100153.56;;;8.59;78.54
25869;BME280;13688;53.154;18.136;2023-04-15T02:22:38;100147.83;;;8.64;78.20
25869;BME280;13688;53.154;18.136;2023-04-15T02:28:02;100161.09;;;8.66;77.92
25869;BME280;13688;53.154;18.136;2023-04-15T02:33:26;100153.91;;;8.66;77.81
25869;BME280;13688;53.154;18.136;2023-04-15T02:38:49;100160.38;;;8.64;77.86
25869;BME280;13688;53.154;18.136;2023-04-15T02:44:12;100161.95;;;8.66;77.97
25869;BME280;13688;53.154;18.136;2023-04-15T02:49:37;100158.20;;;8.69;77.92
25869;BME280;13688;53.154;18.136;2023-04-15T02:54:59;100159.65;;;8.73;77.87
25869;BME280;13688;53.154;18.136;2023-04-15T03:00:22;100161.60;;;8.82;77.53
25869;BME280;13688;53.154;18.136;2023-04-15T03:05:45;100156.62;;;8.88;77.12
25869;BME280;13688;53.154;18.136;2023-04-15T03:11:07;100157.22;;;8.92;76.86
25869;BME280;13688;53.154;18.136;2023-04-15T03:16:30;100164.88;;;8.97;76.63
25869;BME280;13688;53.154;18.136;2023-04-15T03:21:52;100163.92;;;8.98;76.41
25869;BME280;13688;53.154;18.136;2023-04-15T03:27:14;100160.14;;;9.00;76.31
25869;BME280;13688;53.154;18.136;2023-04-15T03:32:37;100161.84;;;9.01;76.25
25869;BME280;13688;53.154;18.136;2023-04-15T03:38:00;100164.27;;;9.04;76.22
25869;BME280;13688;53.154;18.136;2023-04-15T03:43:22;100162.31;;;9.06;76.13
25869;BME280;13688;53.154;18.136;2023-04-15T03:48:45;100166.72;;;9.07;76.03
25869;BME280;13688;53.154;18.136;2023-04-15T03:54:08;100167.58;;;9.08;76.06
25869;BME280;13688;53.154;18.136;2023-04-15T03:59:31;100163.91;;;9.09;76.10
25869;BME280;13688;53.154;18.136;2023-04-15T04:04:54;100165.61;;;9.10;76.12
25869;BME280;13688;53.154;18.136;2023-04-15T04:10:17;100174.52;;;9.10;76.17
25869;BME280;13688;53.154;18.136;2023-04-15T04:15:39;100167.19;;;9.12;76.25
25869;BME280;13688;53.154;18.136;2023-04-15T04:21:02;100169.74;;;9.14;76.18
25869;BME280;13688;53.154;18.136;2023-04-15T04:26:25;100166.94;;;9.15;76.24
25869;BME280;13688;53.154;18.136;2023-04-15T04:31:47;100166.94;;;9.15;76.29
25869;BME280;13688;53.154;18.136;2023-04-15T04:37:09;100173.91;;;9.18;76.29
25869;BME280;13688;53.154;18.136;2023-04-15T04:42:32;100172.92;;;9.19;76.34
25869;BME280;13688;53.154;18.136;2023-04-15T04:47:55;100173.52;;;9.23;76.23
25869;BME280;13688;53.154;18.136;2023-04-15T04:53:19;100178.63;;;9.26;76.13
25869;BME280;13688;53.154;18.136;2023-04-15T04:58:42;100173.16;;;9.27;76.06
25869;BME280;13688;53.154;18.136;2023-04-15T05:04:05;100175.59;;;9.30;75.93
25869;BME280;13688;53.154;18.136;2023-04-15T05:09:27;100178.01;;;9.33;75.92
25869;BME280;13688;53.154;18.136;2023-04-15T05:14:50;100183.25;;;9.35;75.82
25869;BME280;13688;53.154;18.136;2023-04-15T05:20:13;100174.34;;;9.34;75.76
25869;BME280;13688;53.154;18.136;2023-04-15T05:25:35;100176.05;;;9.35;75.88
25869;BME280;13688;53.154;18.136;2023-04-15T05:30:59;100189.46;;;9.35;75.96
25869;BME280;13688;53.154;18.136;2023-04-15T05:36:21;100184.09;;;9.35;76.05
25869;BME280;13688;53.154;18.136;2023-04-15T05:41:44;100191.30;;;9.35;76.25
25869;BME280;13688;53.154;18.136;2023-04-15T05:47:07;100193.25;;;9.33;76.54
25869;BME280;13688;53.154;18.136;2023-04-15T05:52:32;100198.03;;;9.29;77.10
25869;BME280;13688;53.154;18.136;2023-04-15T05:57:54;100192.30;;;9.23;77.95
25869;BME280;13688;53.154;18.136;2023-04-15T06:03:17;100203.89;;;9.12;79.32
25869;BME280;13688;53.154;18.136;2023-04-15T06:08:41;100209.98;;;9.03;80.70
25869;BME280;13688;53.154;18.136;2023-04-15T06:14:04;100211.09;;;8.89;82.31
25869;BME280;13688;53.154;18.136;2023-04-15T06:19:28;100220.20;;;8.75;84.17
25869;BME280;13688;53.154;18.136;2023-04-15T06:24:51;100216.05;;;8.60;86.25
25869;BME280;13688;53.154;18.136;2023-04-15T06:30:14;100220.50;;;8.48;88.15
25869;BME280;13688;53.154;18.136;2023-04-15T06:35:36;100220.59;;;8.36;90.12
25869;BME280;13688;53.154;18.136;2023-04-15T06:40:59;100223.61;;;8.31;92.03
25869;BME280;13688;53.154;18.136;2023-04-15T06:46:22;100213.75;;;8.31;93.58
25869;BME280;13688;53.154;18.136;2023-04-15T06:51:44;100226.29;;;8.31;94.83
25869;BME280;13688;53.154;18.136;2023-04-15T06:57:06;100228.84;;;8.32;95.80
25869;BME280;13688;53.154;18.136;2023-04-15T07:02:29;100243.86;;;8.35;96.50
25869;BME280;13688;53.154;18.136;2023-04-15T07:07:52;100239.02;;;8.40;96.96
25869;BME280;13688;53.154;18.136;2023-04-15T07:13:15;100246.81;;;8.43;97.04
25869;BME280;13688;53.154;18.136;2023-04-15T07:18:37;100252.78;;;8.47;97.00
25869;BME280;13688;53.154;18.136;2023-04-15T07:24:00;100249.25;;;8.46;96.94
25869;BME280;13688;53.154;18.136;2023-04-15T07:29:24;100258.14;;;8.47;96.94
25869;BME280;13688;53.154;18.136;2023-04-15T07:34:47;100263.89;;;8.53;96.92
25869;BME280;13688;53.154;18.136;2023-04-15T07:40:10;100257.80;;;8.51;97.17
25869;BME280;13688;53.154;18.136;2023-04-15T07:45:34;100262.77;;;8.45;98.06
25869;BME280;13688;53.154;18.136;2023-04-15T07:50:58;100265.81;;;8.40;99.25
25869;BME280;13688;53.154;18.136;2023-04-15T07:56:22;100268.24;;;8.43;100.00
25869;BME280;13688;53.154;18.136;2023-04-15T08:01:44;100267.02;;;8.47;100.00
25869;BME280;13688;53.154;18.136;2023-04-15T08:07:08;100277.41;;;8.52;100.00
25869;BME280;13688;53.154;18.136;2023-04-15T08:12:32;100271.80;;;8.55;100.00
25869;BME280;13688;53.154;18.136;2023-04-15T08:17:56;100275.86;;;8.60;100.00
25869;BME280;13688;53.154;18.136;2023-04-15T08:23:18;100277.70;;;8.71;100.00
25869;BME280;13688;53.154;18.136;2023-04-15T08:28:43;100278.83;;;8.80;100.00
25869;BME280;13688;53.154;18.136;2023-04-15T08:34:07;100284.19;;;8.80;99.54
25869;BME280;13688;53.154;18.136;2023-04-15T08:39:32;100288.45;;;8.82;98.17
25869;BME280;13688;53.154;18.136;2023-04-15T08:44:58;100292.71;;;8.85;97.14
25869;BME280;13688;53.154;18.136;2023-04-15T08:50:23;100296.88;;;8.89;96.35
25869;BME280;13688;53.154;18.136;2023-04-15T08:55:52;100298.71;;;8.88;95.80
25869;BME280;13688;53.154;18.136;2023-04-15T09:01:18;100300.05;;;8.94;95.38
25869;BME280;13688;53.154;18.136;2023-04-15T09:06:42;100297.38;;;9.05;95.10
25869;BME280;13688;53.154;18.136;2023-04-15T09:12:07;100306.40;;;9.04;94.92
25869;BME280;13688;53.154;18.136;2023-04-15T09:17:32;100302.52;;;9.08;94.93
25869;BME280;13688;53.154;18.136;2023-04-15T09:22:59;100302.73;;;9.05;94.99
25869;BME280;13688;53.154;18.136;2023-04-15T09:28:25;100299.20;;;9.05;94.91
25869;BME280;13688;53.154;18.136;2023-04-15T09:34:02;100304.44;;;9.06;94.95
25869;BME280;13688;53.154;18.136;2023-04-15T09:39:25;100308.23;;;9.15;94.85
25869;BME280;13688;53.154;18.136;2023-04-15T09:44:51;100295.59;;;9.17;94.54
25869;BME280;13688;53.154;18.136;2023-04-15T09:50:16;100303.86;;;9.25;94.14
25869;BME280;13688;53.154;18.136;2023-04-15T09:55:44;100306.92;;;9.32;93.61
25869;BME280;13688;53.154;18.136;2023-04-15T10:01:20;100302.53;;;9.42;92.73
25869;BME280;13688;53.154;18.136;2023-04-15T10:06:46;100311.05;;;9.36;93.01
25869;BME280;13688;53.154;18.136;2023-04-15T10:12:10;100320.20;;;9.44;92.74
25869;BME280;13688;53.154;18.136;2023-04-15T10:17:36;100307.41;;;9.59;92.03
25869;BME280;13688;53.154;18.136;2023-04-15T10:23:00;100308.13;;;9.61;91.10
25869;BME280;13688;53.154;18.136;2023-04-15T10:28:25;100312.91;;;9.58;90.51
25869;BME280;13688;53.154;18.136;2023-04-15T10:33:52;100314.11;;;9.54;90.33
25869;BME280;13688;53.154;18.136;2023-04-15T10:45:03;100315.81;;;9.55;90.41
25869;BME280;13688;53.154;18.136;2023-04-15T10:50:31;100317.17;;;9.49;90.35
25869;BME280;13688;53.154;18.136;2023-04-15T10:55:57;100322.16;;;9.54;90.50
25869;BME280;13688;53.154;18.136;2023-04-15T11:01:21;100323.27;;;9.51;90.95
25869;BME280;13688;53.154;18.136;2023-04-15T11:07:11;100320.11;;;9.46;91.76
25869;BME280;13688;53.154;18.136;2023-04-15T11:13:04;100324.84;;;9.31;92.57
25869;BME280;13688;53.154;18.136;2023-04-15T11:18:31;100340.81;;;9.33;93.68
25869;BME280;13688;53.154;18.136;2023-04-15T11:23:55;100336.56;;;9.30;94.47
25869;BME280;13688;53.154;18.136;2023-04-15T11:29:20;100340.94;;;9.31;95.04
25869;BME280;13688;53.154;18.136;2023-04-15T11:34:51;100341.06;;;9.30;95.46
25869;BME280;13688;53.154;18.136;2023-04-15T11:40:15;100354.48;;;9.30;95.68
25869;BME280;13688;53.154;18.136;2023-04-15T11:45:59;100349.12;;;9.30;96.11
25869;BME280;13688;53.154;18.136;2023-04-15T11:51:12;100346.91;;;9.24;96.34
25869;BME280;13688;53.154;18.136;2023-04-15T11:56:35;100355.46;;;9.29;96.62
25869;BME280;13688;53.154;18.136;2023-04-15T12:01:57;100356.44;;;9.28;96.96
25869;BME280;13688;53.154;18.136;2023-04-15T12:07:23;100353.84;;;9.26;97.26
25869;BME280;13688;53.154;18.136;2023-04-15T12:12:48;100365.47;;;9.27;97.54
25869;BME280;13688;53.154;18.136;2023-04-15T12:18:16;100368.50;;;9.33;97.77
25869;BME280;13688;53.154;18.136;2023-04-15T12:23:36;100370.59;;;9.41;97.91
25869;BME280;13688;53.154;18.136;2023-04-15T12:29:13;100369.48;;;9.43;98.08
25869;BME280;13688;53.154;18.136;2023-04-15T12:34:39;100370.00;;;9.49;98.13
25869;BME280;13688;53.154;18.136;2023-04-15T12:40:09;100373.66;;;9.59;97.95
25869;BME280;13688;53.154;18.136;2023-04-15T12:45:31;100370.25;;;9.68;97.49
25869;BME280;13688;53.154;18.136;2023-04-15T12:50:54;100365.98;;;9.77;96.85
25869;BME280;13688;53.154;18.136;2023-04-15T12:56:17;100376.84;;;9.75;95.96
25869;BME280;13688;53.154;18.136;2023-04-15T13:01:40;100375.96;;;9.74;95.14
25869;BME280;13688;53.154;18.136;2023-04-15T13:07:04;100378.67;;;9.86;94.43
25869;BME280;13688;53.154;18.136;2023-04-15T13:12:26;100379.41;;;9.77;93.62
25869;BME280;13688;53.154;18.136;2023-04-15T13:17:50;100385.11;;;9.83;93.13
25869;BME280;13688;53.154;18.136;2023-04-15T13:23:12;100385.48;;;9.90;92.78
25869;BME280;13688;53.154;18.136;2023-04-15T13:28:35;100390.49;;;10.06;92.19
25869;BME280;13688;53.154;18.136;2023-04-15T13:33:57;100395.97;;;9.93;91.96
25869;BME280;13688;53.154;18.136;2023-04-15T13:39:19;100399.39;;;9.84;92.21
25869;BME280;13688;53.154;18.136;2023-04-15T13:44:42;100398.42;;;9.73;92.73
25869;BME280;13688;53.154;18.136;2023-04-15T13:50:05;100393.05;;;9.62;93.17
25869;BME280;13688;53.154;18.136;2023-04-15T13:55:28;100401.09;;;9.51;93.65
25869;BME280;13688;53.154;18.136;2023-04-15T14:00:51;100403.52;;;9.43;94.50
25869;BME280;13688;53.154;18.136;2023-04-15T14:06:16;100401.81;;;9.42;95.28
25869;BME280;13688;53.154;18.136;2023-04-15T14:11:39;100407.18;;;9.42;95.65
25869;BME280;13688;53.154;18.136;2023-04-15T14:17:02;100400.49;;;9.48;95.58
25869;BME280;13688;53.154;18.136;2023-04-15T14:22:25;100408.94;;;9.65;95.43
25869;BME280;13688;53.154;18.136;2023-04-15T14:27:47;100413.33;;;9.78;94.98
25869;BME280;13688;53.154;18.136;2023-04-15T14:33:04;100417.59;;;9.58;94.24
25869;BME280;13688;53.154;18.136;2023-04-15T14:38:17;100413.39;;;9.31;94.53
25869;BME280;13688;53.154;18.136;2023-04-15T14:43:40;100420.77;;;9.16;95.93
25869;BME280;13688;53.154;18.136;2023-04-15T14:49:03;100436.50;;;9.10;97.81
25869;BME280;13688;53.154;18.136;2023-04-15T14:54:25;100439.06;;;9.11;99.48
25869;BME280;13688;53.154;18.136;2023-04-15T14:59:47;100439.21;;;9.21;100.00
25869;BME280;13688;53.154;18.136;2023-04-15T15:05:10;100439.61;;;9.28;100.00
25869;BME280;13688;53.154;18.136;2023-04-15T15:10:33;100443.27;;;9.27;100.00
25869;BME280;13688;53.154;18.136;2023-04-15T15:15:58;100453.75;;;9.30;100.00
25869;BME280;13688;53.154;18.136;2023-04-15T15:21:22;100454.48;;;9.32;100.00
25869;BME280;13688;53.154;18.136;2023-04-15T15:26:46;100445.45;;;9.33;100.00
25869;BME280;13688;53.154;18.136;2023-04-15T15:32:25;100462.66;;;9.30;100.00
25869;BME280;13688;53.154;18.136;2023-04-15T15:37:54;100461.55;;;9.33;100.00
25869;BME280;13688;53.154;18.136;2023-04-15T15:43:16;100471.89;;;9.26;100.00
25869;BME280;13688;53.154;18.136;2023-04-15T15:48:39;100473.56;;;9.16;100.00
25869;BME280;13688;53.154;18.136;2023-04-15T15:54:01;100472.13;;;9.23;100.00
25869;BME280;13688;53.154;18.136;2023-04-15T15:59:24;100487.05;;;9.27;100.00
25869;BME280;13688;53.154;18.136;2023-04-15T16:04:50;100489.81;;;9.26;100.00
25869;BME280;13688;53.154;18.136;2023-04-15T16:10:13;100496.64;;;9.18;100.00
25869;BME280;13688;53.154;18.136;2023-04-15T16:15:42;100497.95;;;9.13;100.00
25869;BME280;13688;53.154;18.136;2023-04-15T16:21:05;100498.52;;;9.05;100.00
25869;BME280;13688;53.154;18.136;2023-04-15T16:26:30;100498.23;;;8.97;100.00
25869;BME280;13688;53.154;18.136;2023-04-15T16:31:54;100509.31;;;8.93;100.00
25869;BME280;13688;53.154;18.136;2023-04-15T16:37:16;100506.22;;;8.86;100.00
25869;BME280;13688;53.154;18.136;2023-04-15T16:42:40;100511.70;;;8.84;100.00
25869;BME280;13688;53.154;18.136;2023-04-15T16:48:02;100530.59;;;8.83;100.00
25869;BME280;13688;53.154;18.136;2023-04-15T16:53:26;100523.39;;;8.83;100.00
25869;BME280;13688;53.154;18.136;2023-04-15T16:58:48;100531.67;;;8.80;100.00
25869;BME280;13688;53.154;18.136;2023-04-15T17:04:12;100549.35;;;8.83;100.00
25869;BME280;13688;53.154;18.136;2023-04-15T17:09:37;100542.52;;;8.79;100.00
25869;BME280;13688;53.154;18.136;2023-04-15T17:15:03;100555.92;;;8.79;100.00
25869;BME280;13688;53.154;18.136;2023-04-15T17:20:28;100553.33;;;8.77;100.00
25869;BME280;13688;53.154;18.136;2023-04-15T17:25:52;100555.16;;;8.77;100.00
25869;BME280;13688;53.154;18.136;2023-04-15T17:31:15;100559.77;;;8.75;100.00
25869;BME280;13688;53.154;18.136;2023-04-15T17:36:43;100572.32;;;8.74;100.00
25869;BME280;13688;53.154;18.136;2023-04-15T17:42:09;100574.58;;;8.68;100.00
25869;BME280;13688;53.154;18.136;2023-04-15T17:47:32;100583.08;;;8.62;100.00
25869;BME280;13688;53.154;18.136;2023-04-15T17:52:55;100595.08;;;8.56;100.00
25869;BME280;13688;53.154;18.136;2023-04-15T17:58:18;100595.31;;;8.53;100.00
25869;BME280;13688;53.154;18.136;2023-04-15T18:03:41;100601.75;;;8.50;100.00
25869;BME280;13688;53.154;18.136;2023-04-15T18:09:05;100608.39;;;8.45;100.00
25869;BME280;13688;53.154;18.136;2023-04-15T18:14:28;100620.19;;;8.42;100.00
25869;BME280;13688;53.154;18.136;2023-04-15T18:19:51;100636.27;;;8.42;100.00
25869;BME280;13688;53.154;18.136;2023-04-15T18:25:16;100641.52;;;8.44;100.00
25869;BME280;13688;53.154;18.136;2023-04-15T18:30:40;100645.80;;;8.46;100.00
25869;BME280;13688;53.154;18.136;2023-04-15T18:36:04;100657.25;;;8.48;100.00
25869;BME280;13688;53.154;18.136;2023-04-15T18:41:28;100657.17;;;8.50;100.00
25869;BME280;13688;53.154;18.136;2023-04-15T18:47:09;100655.44;;;8.62;100.00
25869;BME280;13688;53.154;18.136;2023-04-15T18:52:33;100665.21;;;8.50;100.00
25869;BME280;13688;53.154;18.136;2023-04-15T18:57:56;100664.36;;;8.49;100.00
25869;BME280;13688;53.154;18.136;2023-04-15T19:03:18;100679.47;;;8.50;100.00
25869;BME280;13688;53.154;18.136;2023-04-15T19:08:41;100678.61;;;8.50;100.00
25869;BME280;13688;53.154;18.136;2023-04-15T19:14:06;100684.91;;;8.49;100.00
25869;BME280;13688;53.154;18.136;2023-04-15T19:19:30;100687.70;;;8.47;100.00
25869;BME280;13688;53.154;18.136;2023-04-15T19:24:56;100694.98;;;8.45;100.00
25869;BME280;13688;53.154;18.136;2023-04-15T19:30:19;100689.62;;;8.45;100.00
25869;BME280;13688;53.154;18.136;2023-04-15T19:35:43;100697.14;;;8.40;100.00
25869;BME280;13688;53.154;18.136;2023-04-15T19:41:05;100700.77;;;8.39;100.00
25869;BME280;13688;53.154;18.136;2023-04-15T19:46:29;100699.27;;;8.35;100.00
25869;BME280;13688;53.154;18.136;2023-04-15T19:51:54;100705.56;;;8.34;100.00
25869;BME280;13688;53.154;18.136;2023-04-15T19:57:17;100709.20;;;8.33;100.00
25869;BME280;13688;53.154;18.136;2023-04-15T20:02:40;100712.85;;;8.32;100.00
25869;BME280;13688;53.154;18.136;2023-04-15T20:08:08;100717.24;;;8.33;100.00
25869;BME280;13688;53.154;18.136;2023-04-15T20:13:31;100721.75;;;8.32;100.00
25869;BME280;13688;53.154;18.136;2023-04-15T20:18:56;100717.47;;;8.30;100.00
25869;BME280;13688;53.154;18.136;2023-04-15T20:24:21;100720.14;;;8.30;100.00
25869;BME280;13688;53.154;18.136;2023-04-15T20:29:44;100728.26;;;8.28;100.00
25869;BME280;13688;53.154;18.136;2023-04-15T20:35:12;100738.89;;;8.30;100.00
25869;BME280;13688;53.154;18.136;2023-04-15T20:40:38;100739.19;;;8.25;100.00
25869;BME280;13688;53.154;18.136;2023-04-15T20:46:02;100739.94;;;8.27;100.00
25869;BME280;13688;53.154;18.136;2023-04-15T20:51:27;100750.66;;;8.27;100.00
25869;BME280;13688;53.154;18.136;2023-04-15T20:56:51;100743.05;;;8.21;100.00
25869;BME280;13688;53.154;18.136;2023-04-15T21:02:15;100755.77;;;8.18;100.00
25869;BME280;13688;53.154;18.136;2023-04-15T21:07:40;100754.06;;;8.17;100.00
25869;BME280;13688;53.154;18.136;2023-04-15T21:13:03;100766.98;;;8.10;100.00
25869;BME280;13688;53.154;18.136;2023-04-15T21:18:27;100765.59;;;8.04;100.00
25869;BME280;13688;53.154;18.136;2023-04-15T21:23:50;100773.17;;;7.98;100.00
25869;BME280;13688;53.154;18.136;2023-04-15T21:29:17;100777.02;;;7.94;100.00
25869;BME280;13688;53.154;18.136;2023-04-15T21:34:41;100777.13;;;7.92;100.00
25869;BME280;13688;53.154;18.136;2023-04-15T21:40:05;100795.02;;;7.92;100.00
25869;BME280;13688;53.154;18.136;2023-04-15T21:45:28;100791.48;;;7.91;100.00
25869;BME280;13688;53.154;18.136;2023-04-15T21:50:57;100799.41;;;7.93;100.00
25869;BME280;13688;53.154;18.136;2023-04-15T21:56:20;100800.44;;;7.90;100.00
25869;BME280;13688;53.154;18.136;2023-04-15T22:01:42;100800.36;;;7.92;100.00
25869;BME280;13688;53.154;18.136;2023-04-15T22:07:06;100807.54;;;7.91;100.00
25869;BME280;13688;53.154;18.136;2023-04-15T22:12:30;100809.25;;;7.92;100.00
25869;BME280;13688;53.154;18.136;2023-04-15T22:17:53;100824.36;;;7.93;100.00
25869;BME280;13688;53.154;18.136;2023-04-15T22:23:15;100826.07;;;7.94;100.00
25869;BME280;13688;53.154;18.136;2023-04-15T22:28:38;100836.78;;;7.94;100.00
25869;BME280;13688;53.154;18.136;2023-04-15T22:34:00;100831.53;;;7.93;99.76
25869;BME280;13688;53.154;18.136;2023-04-15T22:39:25;100839.67;;;7.91;99.52
25869;BME280;13688;53.154;18.136;2023-04-15T22:44:50;100842.62;;;7.87;99.30
25869;BME280;13688;53.154;18.136;2023-04-15T22:50:14;100844.45;;;7.86;98.96
25869;BME280;13688;53.154;18.136;2023-04-15T22:55:38;100847.13;;;7.86;98.49
25869;BME280;13688;53.154;18.136;2023-04-15T23:01:04;100849.80;;;7.86;97.88
25869;BME280;13688;53.154;18.136;2023-04-15T23:06:30;100850.76;;;7.85;97.43
25869;BME280;13688;53.154;18.136;2023-04-15T23:11:55;100853.54;;;7.84;97.28
25869;BME280;13688;53.154;18.136;2023-04-15T23:17:19;100859.06;;;7.81;97.35
25869;BME280;13688;53.154;18.136;2023-04-15T23:22:44;100856.59;;;7.78;97.71
25869;BME280;13688;53.154;18.136;2023-04-15T23:28:08;100855.95;;;7.74;98.34
25869;BME280;13688;53.154;18.136;2023-04-15T23:33:32;100866.92;;;7.69;99.18
25869;BME280;13688;53.154;18.136;2023-04-15T23:38:57;100857.66;;;7.61;100.00
25869;BME280;13688;53.154;18.136;2023-04-15T23:44:20;100861.40;;;7.58;100.00
25869;BME280;13688;53.154;18.136;2023-04-15T23:49:45;100865.03;;;7.57;100.00
25869;BME280;13688;53.154;18.136;2023-04-15T23:55:09;100865.41;;;7.51;100.00
